createdAt,value
2018-03-20T00:01:20.332Z,22.77
2018-03-20T00:03:47.905Z,25.80
2018-03-20T00:06:15.441Z,23.95
2018-03-20T00:08:42.975Z,24.05
2018-03-20T00:11:10.559Z,23.95
2018-03-20T00:13:38.099Z,22.70
2018-03-20T00:16:06.411Z,22.20
2018-03-20T00:18:33.983Z,21.98
2018-03-20T00:21:01.525Z,22.62
2018-03-20T00:23:29.062Z,20.02
2018-03-20T00:25:57.390Z,20.70
2018-03-20T00:28:24.927Z,21.92
2018-03-20T00:30:52.452Z,20.20
2018-03-20T00:33:20.800Z,21.40
2018-03-20T00:35:48.343Z,20.62
2018-03-20T00:38:15.889Z,21.35
2018-03-20T00:40:43.448Z,20.40
2018-03-20T00:43:10.987Z,19.55
2018-03-20T00:45:38.516Z,20.45
2018-03-20T00:48:06.163Z,21.70
2018-03-20T00:50:33.723Z,20.12
2018-03-20T00:53:01.266Z,22.67
2018-03-20T00:55:28.808Z,19.25
2018-03-20T00:57:56.334Z,22.42
2018-03-20T01:00:24.631Z,21.17
2018-03-20T01:02:52.201Z,21.25
2018-03-20T01:05:19.747Z,19.70
2018-03-20T01:07:47.281Z,20.73
2018-03-20T01:10:15.599Z,18.80
2018-03-20T01:12:43.142Z,20.00
2018-03-20T01:15:10.692Z,18.70
2018-03-20T01:17:38.265Z,20.20
2018-03-20T01:20:05.806Z,18.05
2018-03-20T01:22:34.115Z,19.35
2018-03-20T01:25:01.691Z,18.73
2018-03-20T01:27:29.211Z,18.55
2018-03-20T01:29:56.754Z,20.50
2018-03-20T01:32:25.073Z,18.83
2018-03-20T01:34:52.603Z,17.80
2018-03-20T01:37:20.129Z,19.02
2018-03-20T01:39:47.690Z,19.45
2018-03-20T01:42:15.230Z,19.12
2018-03-20T01:44:42.770Z,20.27
2018-03-20T01:47:10.340Z,20.12
2018-03-20T01:49:37.889Z,18.00
2018-03-20T01:52:05.416Z,18.27
2018-03-20T01:54:32.972Z,18.42
2018-03-20T01:57:01.275Z,18.98
2018-03-20T01:59:28.814Z,19.80
2018-03-20T02:01:56.383Z,18.70
2018-03-20T02:04:23.913Z,22.33
2018-03-20T02:06:52.214Z,18.37
2018-03-20T02:09:19.765Z,20.55
2018-03-20T02:11:47.308Z,19.67
2018-03-20T02:14:15.619Z,19.70
2018-03-20T02:16:43.200Z,20.27
2018-03-20T02:19:10.722Z,19.40
2018-03-20T02:21:38.249Z,18.12
2018-03-20T02:24:05.809Z,18.62
2018-03-20T02:26:33.349Z,19.45
2018-03-20T02:29:00.892Z,19.33
2018-03-20T02:31:28.442Z,20.40
2018-03-20T02:33:55.994Z,20.77
2018-03-20T02:36:23.538Z,19.10
2018-03-20T02:38:51.103Z,21.70
2018-03-20T02:41:18.644Z,18.80
2018-03-20T02:43:46.956Z,18.48
2018-03-20T02:46:20.345Z,21.33
2018-03-20T02:48:47.885Z,19.83
2018-03-20T02:51:15.413Z,21.15
2018-03-20T02:53:42.970Z,19.52
2018-03-20T02:56:10.528Z,19.60
2018-03-20T02:58:38.067Z,20.17
2018-03-20T03:01:05.628Z,22.15
2018-03-20T03:03:33.172Z,19.98
2018-03-20T03:06:00.704Z,18.70
2018-03-20T03:08:28.262Z,21.55
2018-03-20T03:10:55.795Z,21.15
2018-03-20T03:13:23.332Z,19.10
2018-03-20T03:15:50.881Z,21.35
2018-03-20T03:18:18.447Z,20.08
2018-03-20T03:20:45.968Z,21.17
2018-03-20T03:23:13.539Z,19.20
2018-03-20T03:25:41.936Z,20.90
2018-03-20T03:28:09.494Z,21.02
2018-03-20T03:30:37.037Z,21.98
2018-03-20T03:33:04.603Z,21.17
2018-03-20T03:35:32.144Z,21.15
2018-03-20T03:37:59.703Z,19.55
2018-03-20T03:40:27.241Z,20.10
2018-03-20T03:42:55.551Z,21.58
2018-03-20T03:45:23.093Z,20.95
2018-03-20T03:47:50.646Z,21.15
2018-03-20T03:50:18.194Z,22.33
2018-03-20T03:52:46.486Z,21.45
2018-03-20T03:55:14.045Z,22.65
2018-03-20T03:57:41.592Z,23.40
2018-03-20T04:00:09.923Z,23.67
2018-03-20T04:02:37.454Z,20.45
2018-03-20T04:05:05.009Z,18.70
2018-03-20T04:07:32.536Z,17.45
2018-03-20T04:10:00.876Z,17.08
2018-03-20T04:12:28.415Z,15.00
2018-03-20T04:14:55.958Z,18.05
2018-03-20T04:17:23.505Z,16.45
2018-03-20T04:19:51.053Z,16.90
2018-03-20T04:22:19.373Z,18.30
2018-03-20T04:24:46.904Z,17.77
2018-03-20T04:27:14.458Z,17.85
2018-03-20T04:29:42.750Z,16.20
2018-03-20T04:32:10.301Z,16.25
2018-03-20T04:34:37.844Z,16.55
2018-03-20T04:37:06.197Z,17.17
2018-03-20T04:39:33.747Z,18.80
2018-03-20T04:42:01.289Z,18.15
2018-03-20T04:44:28.833Z,17.75
2018-03-20T04:46:56.357Z,18.25
2018-03-20T04:49:24.674Z,17.77
2018-03-20T04:51:52.200Z,17.05
2018-03-20T04:54:20.523Z,16.02
2018-03-20T04:56:48.051Z,17.67
2018-03-20T04:59:15.642Z,17.58
2018-03-20T05:01:43.169Z,17.40
2018-03-20T05:04:10.709Z,18.15
2018-03-20T05:06:39.047Z,16.35
2018-03-20T05:09:06.602Z,17.52
2018-03-20T05:11:34.160Z,16.05
2018-03-20T05:14:01.703Z,15.95
2018-03-20T05:16:29.252Z,16.70
2018-03-20T05:19:02.475Z,18.50
2018-03-20T05:21:40.683Z,16.95
2018-03-20T05:24:08.224Z,17.40
2018-03-20T05:26:35.785Z,16.75
2018-03-20T05:29:03.324Z,17.30
2018-03-20T05:31:30.877Z,16.20
2018-03-20T05:33:58.436Z,15.80
2018-03-20T05:36:25.973Z,15.07
2018-03-20T05:38:54.298Z,15.93
2018-03-20T05:41:21.826Z,17.75
2018-03-20T05:43:50.156Z,14.90
2018-03-20T05:49:35.623Z,16.45
2018-03-20T05:52:05.862Z,16.17
2018-03-20T05:54:33.413Z,16.83
2018-03-20T05:57:00.949Z,15.77
2018-03-20T05:59:28.512Z,15.40
2018-03-20T06:01:56.083Z,15.18
2018-03-20T06:04:24.354Z,15.32
2018-03-20T06:06:51.889Z,14.40
2018-03-20T06:09:20.189Z,15.73
2018-03-20T06:11:47.748Z,15.40
2018-03-20T06:14:15.283Z,14.60
2018-03-20T06:16:43.604Z,14.10
2018-03-20T06:19:11.132Z,15.57
2018-03-20T06:21:38.698Z,15.52
2018-03-20T06:24:06.232Z,16.27
2018-03-20T06:26:34.555Z,14.05
2018-03-20T06:29:02.114Z,14.32
2018-03-20T06:31:29.657Z,14.55
2018-03-20T06:33:57.210Z,14.23
2018-03-20T06:36:24.738Z,15.02
2018-03-20T06:38:53.072Z,15.57
2018-03-20T06:41:20.629Z,16.25
2018-03-20T06:43:48.176Z,15.10
2018-03-20T06:46:15.706Z,15.27
2018-03-20T06:48:44.044Z,13.93
2018-03-20T06:51:11.599Z,15.35
2018-03-20T06:53:39.149Z,16.25
2018-03-20T06:56:06.693Z,16.50
2018-03-20T06:58:34.220Z,15.88
2018-03-20T07:01:02.565Z,17.15
2018-03-20T07:03:30.103Z,17.05
2018-03-20T07:05:57.675Z,17.40
2018-03-20T07:08:25.225Z,17.08
2018-03-20T07:10:52.786Z,15.13
2018-03-20T07:13:20.338Z,13.50
2018-03-20T07:15:47.859Z,14.27
2018-03-20T07:18:16.166Z,14.40
2018-03-20T07:20:43.696Z,12.93
2018-03-20T07:23:12.019Z,15.15
2018-03-20T07:25:39.576Z,13.15
2018-03-20T07:28:07.125Z,13.30
2018-03-20T07:30:34.649Z,14.55
2018-03-20T07:33:02.983Z,12.30
2018-03-20T07:35:30.534Z,13.70
2018-03-20T07:37:58.110Z,12.68
2018-03-20T07:40:25.649Z,12.95
2018-03-20T07:42:53.183Z,13.10
2018-03-20T07:45:20.755Z,13.40
2018-03-20T07:47:48.299Z,13.57
2018-03-20T07:50:15.840Z,14.10
2018-03-20T07:52:44.147Z,11.73
2018-03-20T07:55:11.699Z,12.25
2018-03-20T07:57:39.241Z,11.43
2018-03-20T08:00:06.821Z,12.00
2018-03-20T08:02:34.339Z,11.77
2018-03-20T08:05:01.877Z,12.50
2018-03-20T08:07:29.442Z,13.65
2018-03-20T08:09:56.982Z,13.10
2018-03-20T08:12:24.525Z,12.15
2018-03-20T08:14:52.090Z,14.27
2018-03-20T08:17:20.413Z,15.55
2018-03-20T08:19:47.948Z,13.62
2018-03-20T08:22:15.501Z,14.82
2018-03-20T08:24:43.057Z,14.20
2018-03-20T08:27:11.377Z,15.38
2018-03-20T08:29:39.678Z,16.08
2018-03-20T08:32:07.209Z,14.57
2018-03-20T08:34:35.535Z,18.23
2018-03-20T08:37:03.073Z,17.33
2018-03-20T08:39:30.660Z,15.40
2018-03-20T08:41:58.197Z,15.48
2018-03-20T08:44:25.787Z,15.88
2018-03-20T08:46:53.311Z,14.20
2018-03-20T08:49:20.871Z,15.73
2018-03-20T08:51:48.418Z,15.30
2018-03-20T08:54:16.730Z,16.02
2018-03-20T08:56:44.262Z,14.35
2018-03-20T08:59:11.829Z,18.02
2018-03-20T09:01:39.380Z,17.40
2018-03-20T09:04:06.920Z,15.95
2018-03-20T09:06:35.343Z,14.77
2018-03-20T09:09:02.879Z,16.20
2018-03-20T09:11:30.429Z,16.70
2018-03-20T09:13:57.969Z,14.60
2018-03-20T09:16:26.319Z,15.02
2018-03-20T09:18:53.853Z,15.98
2018-03-20T09:21:21.401Z,14.98
2018-03-20T09:23:48.961Z,14.48
2018-03-20T09:26:16.488Z,13.90
2018-03-20T09:28:44.796Z,14.05
2018-03-20T09:33:47.000Z,15.00
2018-03-20T09:36:14.545Z,15.25
2018-03-20T09:38:42.113Z,14.63
2018-03-20T09:41:09.649Z,14.63
2018-03-20T09:43:37.210Z,15.90
2018-03-20T09:46:04.761Z,16.33
2018-03-20T09:48:32.298Z,15.32
2018-03-20T09:51:00.620Z,14.32
2018-03-20T09:53:28.168Z,15.05
2018-03-20T09:55:55.742Z,15.45
2018-03-20T09:58:23.271Z,16.37
2018-03-20T10:00:51.586Z,14.48
2018-03-20T10:03:19.116Z,14.10
2018-03-20T10:05:46.662Z,13.52
2018-03-20T10:08:14.946Z,12.70
2018-03-20T10:10:43.231Z,13.25
2018-03-20T10:13:10.766Z,14.77
2018-03-20T10:15:39.080Z,16.05
2018-03-20T10:18:06.644Z,14.15
2018-03-20T10:20:34.193Z,15.52
2018-03-20T10:23:01.742Z,14.40
2018-03-20T10:25:29.267Z,14.40
2018-03-20T10:27:56.814Z,13.98
2018-03-20T10:30:24.341Z,15.30
2018-03-20T10:32:51.860Z,13.13
2018-03-20T10:35:20.290Z,13.57
2018-03-20T10:37:47.832Z,12.25
2018-03-20T10:40:15.376Z,14.20
2018-03-20T10:42:42.901Z,11.30
2018-03-20T10:45:10.452Z,13.00
2018-03-20T10:47:38.001Z,11.85
2018-03-20T10:50:05.558Z,12.18
2018-03-20T10:52:33.099Z,11.88
2018-03-20T10:55:00.682Z,11.88
2018-03-20T10:57:28.217Z,10.52
2018-03-20T10:59:55.754Z,11.43
2018-03-20T11:02:28.915Z,10.27
2018-03-20T11:04:57.231Z,10.00
2018-03-20T11:07:24.806Z,11.80
2018-03-20T11:09:52.444Z,12.20
2018-03-20T11:12:19.994Z,11.27
2018-03-20T11:14:49.985Z,9.70
2018-03-20T11:17:17.524Z,10.45
2018-03-20T11:19:45.066Z,11.35
2018-03-20T11:22:12.600Z,10.95
2018-03-20T11:24:40.174Z,11.12
2018-03-20T11:27:07.704Z,13.43
2018-03-20T11:29:36.011Z,10.98
2018-03-20T11:32:03.538Z,12.13
2018-03-20T11:34:31.846Z,10.65
2018-03-20T11:36:59.396Z,10.38
2018-03-20T11:39:26.956Z,11.73
2018-03-20T11:41:54.496Z,11.75
2018-03-20T11:44:22.070Z,11.10
2018-03-20T11:46:49.595Z,11.07
2018-03-20T11:49:17.912Z,11.70
2018-03-20T11:51:45.471Z,12.85
2018-03-20T11:54:12.997Z,12.65
2018-03-20T11:56:41.311Z,10.85
2018-03-20T11:59:08.847Z,11.93
2018-03-20T12:01:37.172Z,11.98
2018-03-20T12:04:04.702Z,11.90
2018-03-20T12:06:32.243Z,13.13
2018-03-20T12:09:11.811Z,12.82
2018-03-20T12:11:39.372Z,14.05
2018-03-20T12:14:06.894Z,13.57
2018-03-20T12:16:35.205Z,12.48
2018-03-20T12:19:02.755Z,12.65
2018-03-20T12:21:30.296Z,12.18
2018-03-20T12:23:58.621Z,12.27
2018-03-20T12:26:26.147Z,10.95
2018-03-20T12:28:53.707Z,11.90
2018-03-20T12:31:21.231Z,10.55
2018-03-20T12:33:49.743Z,11.00
2018-03-20T12:36:17.262Z,11.40
2018-03-20T12:38:44.794Z,10.82
2018-03-20T12:41:12.335Z,10.52
2018-03-20T12:43:39.858Z,11.15
2018-03-20T12:46:08.163Z,11.85
2018-03-20T12:48:35.697Z,12.13
2018-03-20T12:51:04.002Z,11.10
2018-03-20T12:53:31.541Z,11.32
2018-03-20T12:55:59.847Z,11.00
2018-03-20T12:58:27.373Z,11.55
2018-03-20T13:00:55.683Z,10.73
2018-03-20T13:03:23.203Z,9.98
2018-03-20T13:05:51.487Z,10.50
2018-03-20T13:08:19.794Z,11.15
2018-03-20T13:10:47.313Z,11.00
2018-03-20T13:13:15.632Z,10.00
2018-03-20T13:15:43.157Z,10.52
2018-03-20T13:18:10.692Z,11.65
2018-03-20T13:20:38.227Z,10.55
2018-03-20T13:23:05.783Z,10.40
2018-03-20T13:25:33.304Z,10.55
2018-03-20T13:28:00.820Z,9.75
2018-03-20T13:30:28.358Z,11.10
2018-03-20T13:32:55.902Z,10.07
2018-03-20T13:35:23.438Z,11.20
2018-03-20T13:37:50.958Z,10.50
2018-03-20T13:40:18.582Z,11.82
2018-03-20T13:42:46.104Z,9.88
2018-03-20T13:45:13.638Z,9.98
2018-03-20T13:47:41.166Z,9.43
2018-03-20T13:50:08.712Z,10.80
2018-03-20T13:52:36.250Z,10.02
2018-03-20T13:55:03.783Z,11.35
2018-03-20T13:57:32.101Z,10.18
2018-03-20T13:59:59.627Z,10.32
2018-03-20T14:02:27.928Z,9.43
2018-03-20T14:04:55.453Z,9.68
2018-03-20T14:07:23.770Z,10.13
2018-03-20T14:09:51.310Z,7.68
2018-03-20T14:12:19.634Z,9.15
2018-03-20T14:14:47.153Z,9.52
2018-03-20T14:17:14.683Z,10.48
2018-03-20T14:19:42.227Z,9.23
2018-03-20T14:22:09.739Z,9.88
2018-03-20T14:24:37.299Z,9.07
2018-03-20T14:27:04.830Z,11.15
2018-03-20T14:29:33.131Z,10.57
2018-03-20T14:32:00.660Z,11.05
2018-03-20T14:34:28.969Z,11.45
2018-03-20T14:36:56.493Z,11.55
2018-03-20T14:39:24.908Z,12.82
2018-03-20T14:41:52.423Z,11.43
2018-03-20T14:44:19.947Z,10.38
2018-03-20T14:46:47.484Z,10.68
2018-03-20T14:49:15.000Z,9.35
2018-03-20T14:51:42.542Z,10.77
2018-03-20T14:54:10.083Z,10.63
2018-03-20T14:56:37.633Z,11.05
2018-03-20T14:59:05.158Z,10.00
2018-03-20T15:01:33.469Z,9.15
2018-03-20T15:04:00.988Z,12.18
2018-03-20T15:06:29.274Z,11.00
2018-03-20T15:08:57.589Z,9.80
2018-03-20T15:11:25.175Z,11.65
2018-03-20T15:13:52.665Z,10.90
2018-03-20T15:16:20.950Z,11.10
2018-03-20T15:18:48.480Z,11.18
2018-03-20T15:21:28.715Z,9.57
2018-03-20T15:23:56.270Z,9.27
2018-03-20T15:26:23.789Z,10.57
2018-03-20T15:28:51.343Z,10.30
2018-03-20T15:31:18.862Z,9.55
2018-03-20T15:33:46.390Z,9.40
2018-03-20T15:36:13.938Z,7.28
2018-03-20T15:38:41.474Z,8.63
2018-03-20T15:41:09.016Z,7.32
2018-03-20T15:43:37.301Z,7.10
2018-03-20T15:46:05.616Z,8.50
2018-03-20T15:48:33.137Z,8.07
2018-03-20T15:51:01.436Z,8.55
2018-03-20T15:53:28.963Z,7.60
2018-03-20T15:55:57.273Z,8.02
2018-03-20T15:58:24.808Z,7.37
2018-03-20T16:00:53.092Z,6.62
2018-03-20T16:03:21.400Z,7.90
2018-03-20T16:05:48.918Z,7.50
2018-03-20T16:08:17.244Z,8.25
2018-03-20T16:10:44.763Z,9.45
2018-03-20T16:13:13.069Z,9.10
2018-03-20T16:15:40.643Z,10.00
2018-03-20T16:18:08.194Z,9.90
2018-03-20T16:20:35.723Z,9.13
2018-03-20T16:23:03.235Z,10.60
2018-03-20T16:25:30.806Z,11.50
2018-03-20T16:27:58.323Z,10.40
2018-03-20T16:30:25.854Z,10.00
2018-03-20T16:32:54.155Z,10.07
2018-03-20T16:35:21.684Z,10.93
2018-03-20T16:37:49.961Z,8.70
2018-03-20T16:40:18.261Z,11.25
2018-03-20T16:42:45.793Z,10.65
2018-03-20T16:45:14.103Z,9.10
2018-03-20T16:47:41.622Z,10.40
2018-03-20T16:50:09.905Z,11.07
2018-03-20T16:52:38.204Z,8.63
2018-03-20T16:55:05.723Z,8.80
2018-03-20T16:57:33.259Z,8.77
2018-03-20T17:00:01.544Z,8.77
2018-03-20T17:02:29.117Z,9.77
2018-03-20T17:04:56.696Z,9.05
2018-03-20T17:07:24.967Z,8.32
2018-03-20T17:09:53.261Z,7.20
2018-03-20T17:12:20.798Z,9.75
2018-03-20T17:14:49.105Z,9.57
2018-03-20T17:17:16.649Z,9.68
2018-03-20T17:19:44.956Z,8.80
2018-03-20T17:22:12.482Z,9.30
2018-03-20T17:24:40.782Z,11.20
2018-03-20T17:27:08.303Z,10.82
2018-03-20T17:29:36.617Z,10.40
2018-03-20T17:32:04.144Z,10.85
2018-03-20T17:34:32.491Z,10.10
2018-03-20T17:37:00.020Z,9.77
2018-03-20T17:39:27.562Z,9.80
2018-03-20T17:41:55.113Z,9.15
2018-03-20T17:44:23.406Z,10.05
2018-03-20T17:46:50.950Z,9.55
2018-03-20T17:49:19.241Z,9.82
2018-03-20T17:51:46.806Z,9.63
2018-03-20T17:54:14.325Z,11.02
2018-03-20T17:56:41.876Z,10.23
2018-03-20T17:59:09.397Z,10.98
2018-03-20T18:01:36.952Z,11.90
2018-03-20T18:04:04.512Z,10.80
2018-03-20T18:06:32.080Z,11.30
2018-03-20T18:08:59.605Z,11.55
2018-03-20T18:11:27.148Z,11.30
2018-03-20T18:13:55.453Z,12.10
2018-03-20T18:16:22.988Z,11.43
2018-03-20T18:18:51.300Z,10.85
2018-03-20T18:21:18.837Z,11.60
2018-03-20T18:23:46.398Z,12.02
2018-03-20T18:26:13.937Z,12.48
2018-03-20T18:28:42.269Z,13.62
2018-03-20T18:31:09.799Z,12.50
2018-03-20T18:33:37.319Z,14.52
2018-03-20T18:36:04.860Z,13.95
2018-03-20T18:38:32.487Z,12.32
2018-03-20T18:41:00.035Z,12.20
2018-03-20T18:43:27.566Z,14.98
2018-03-20T18:45:55.905Z,14.35
2018-03-20T18:48:23.433Z,14.27
2018-03-20T18:50:50.959Z,13.27
2018-03-20T18:53:19.281Z,14.27
2018-03-20T18:55:46.811Z,13.48
2018-03-20T18:58:15.119Z,12.88
2018-03-20T19:00:42.661Z,12.43
2018-03-20T19:03:10.210Z,13.65
2018-03-20T19:05:38.540Z,12.75
2018-03-20T19:08:06.066Z,12.43
2018-03-20T19:10:33.599Z,11.73
2018-03-20T19:13:01.926Z,11.82
2018-03-20T19:15:29.475Z,10.88
2018-03-20T19:17:57.010Z,10.63
2018-03-20T19:20:24.571Z,9.80
2018-03-20T19:22:52.122Z,9.35
2018-03-20T19:25:19.671Z,10.63
2018-03-20T19:27:47.966Z,10.95
2018-03-20T19:30:15.560Z,10.63
2018-03-20T19:32:43.065Z,10.02
2018-03-20T19:35:11.390Z,10.00
2018-03-20T19:37:38.942Z,10.65
2018-03-20T19:40:06.476Z,12.25
2018-03-20T19:42:34.037Z,11.32
2018-03-20T19:45:01.564Z,10.30
2018-03-20T19:47:29.122Z,9.00
2018-03-20T19:49:56.668Z,9.07
2018-03-20T19:52:24.244Z,8.60
2018-03-20T19:54:52.559Z,9.55
2018-03-20T19:57:20.134Z,8.48
2018-03-20T19:59:47.670Z,9.40
2018-03-20T20:02:15.234Z,9.65
2018-03-20T20:04:42.759Z,9.20
2018-03-20T20:07:11.069Z,10.07
2018-03-20T20:09:38.638Z,9.30
2018-03-20T20:12:06.163Z,9.63
2018-03-20T20:14:34.490Z,9.70
2018-03-20T20:17:02.020Z,8.63
2018-03-20T20:19:29.584Z,8.88
2018-03-20T20:21:57.119Z,10.18
2018-03-20T20:24:25.449Z,9.55
2018-03-20T20:26:53.049Z,9.88
2018-03-20T20:29:21.373Z,10.85
2018-03-20T20:31:48.923Z,9.52
2018-03-20T20:34:16.443Z,10.00
2018-03-20T20:36:44.799Z,8.70
2018-03-20T20:39:12.323Z,9.43
2018-03-20T20:41:39.904Z,11.20
2018-03-20T20:44:07.452Z,10.65
2018-03-20T20:46:34.993Z,10.95
2018-03-20T20:49:02.537Z,9.00
2018-03-20T20:51:30.837Z,10.15
2018-03-20T20:53:58.378Z,11.10
2018-03-20T20:56:25.899Z,9.63
2018-03-20T20:58:53.447Z,10.57
2018-03-20T21:01:20.993Z,10.35
2018-03-20T21:03:48.547Z,10.10
2018-03-20T21:06:16.204Z,10.82
2018-03-20T21:08:43.753Z,10.05
2018-03-20T21:11:11.274Z,10.40
2018-03-20T21:13:39.602Z,10.73
2018-03-20T21:16:07.123Z,11.48
2018-03-20T21:18:35.473Z,11.25
2018-03-20T21:21:02.988Z,11.57
2018-03-20T21:23:30.522Z,10.80
2018-03-20T21:25:58.069Z,11.38
2018-03-20T21:28:26.355Z,10.43
2018-03-20T21:30:54.665Z,10.55
2018-03-20T21:33:22.185Z,9.40
2018-03-20T21:35:50.492Z,11.38
2018-03-20T21:38:18.020Z,10.20
2018-03-20T21:40:46.309Z,10.57
2018-03-20T21:43:13.854Z,11.32
2018-03-20T21:45:42.199Z,12.25
2018-03-20T21:48:09.739Z,10.25
2018-03-20T21:50:37.261Z,9.75
2018-03-20T21:53:04.803Z,9.82
2018-03-20T21:55:33.089Z,9.50
2018-03-20T21:58:01.388Z,10.18
2018-03-20T22:00:28.909Z,9.60
2018-03-20T22:02:57.223Z,9.55
2018-03-20T22:05:24.748Z,11.05
2018-03-20T22:07:53.049Z,10.68
2018-03-20T22:10:20.597Z,11.48
2018-03-20T22:12:48.904Z,11.38
2018-03-20T22:15:16.446Z,10.38
2018-03-20T22:17:43.969Z,9.55
2018-03-20T22:20:11.502Z,11.23
2018-03-20T22:22:39.039Z,11.55
2018-03-20T22:25:06.581Z,11.02
2018-03-20T22:27:34.103Z,11.38
2018-03-20T22:30:01.643Z,11.23
2018-03-20T22:32:29.194Z,12.35
2018-03-20T22:34:56.726Z,13.93
2018-03-20T22:37:24.286Z,11.93
2018-03-20T22:39:51.811Z,11.68
2018-03-20T22:42:20.121Z,11.65
2018-03-20T22:44:47.646Z,13.15
2018-03-20T22:47:15.964Z,12.18
2018-03-20T22:49:43.530Z,13.75
2018-03-20T22:52:11.077Z,12.75
2018-03-20T22:54:38.620Z,13.50
2018-03-20T22:57:06.924Z,14.27
2018-03-20T22:59:34.485Z,14.02
2018-03-20T23:02:02.005Z,13.90
2018-03-20T23:04:30.312Z,12.15
2018-03-20T23:06:57.854Z,13.00
2018-03-20T23:09:25.405Z,13.40
2018-03-20T23:11:53.698Z,13.73
2018-03-20T23:14:21.247Z,13.93
2018-03-20T23:16:48.762Z,15.90
2018-03-20T23:19:16.300Z,14.60
2018-03-20T23:21:43.846Z,14.90
2018-03-20T23:24:11.378Z,14.65
2018-03-20T23:26:39.686Z,14.80
2018-03-20T23:29:07.218Z,14.68
2018-03-20T23:31:34.755Z,12.13
2018-03-20T23:34:03.049Z,12.37
2018-03-20T23:36:31.355Z,13.52
2018-03-20T23:38:58.867Z,13.20
2018-03-20T23:41:27.184Z,11.93
2018-03-20T23:43:54.703Z,13.90
2018-03-20T23:46:23.010Z,14.87
2018-03-20T23:48:50.559Z,13.85
2018-03-20T23:51:18.088Z,13.80
2018-03-20T23:53:45.626Z,14.63
2018-03-20T23:56:13.143Z,13.75
2018-03-20T23:58:40.684Z,13.45
